Latest Coastal Weather Observations for Point Avoid

IDS60701

Issued at 4:01 pm CDT Monday 6 December 2021 (issued every 10 minutes, with the page automatically refreshed every 10 minutes)

About coastal observations | Map of coastal stations | Coastal observations for SA | Marine services | Other Formats
Station Details ID: 018230 Name: POINT AVOID Lat: -34.67 Lon: 135.34 Height: 35.0 m
Data from the previous 72 hours. | See also: Recent months at Point Avoid
Date/Time
CDT
Wind Sea
Height
m
Swell Vis
km
Cloud Weather Temp
°C
Press
MSL
hPa
Rain since
9am
mm
Dir  Spd
kts
Gust
kts
Height
m
Period
s
Dir
06/04:00pm SW 11 15 - - - - - - - 18.9 1013.6 0.0
06/03:30pm SW 11 15 - - - - - - - 19.3 1013.8 0.0
06/03:00pm SW 11 14 - - - - - - - 19.4 1013.8 0.0
06/02:30pm SW 12 16 - - - - - - - 19.3 1013.9 0.0
06/02:00pm SW 13 17 - - - - - - - 19.1 1013.9 0.0
06/01:30pm SW 12 16 - - - - - - - 19.0 1014.0 0.0
06/01:00pm SW 11 13 - - - - - - - 19.7 1014.0 0.0
06/12:30pm WSW 8 10 - - - - - - - 17.8 1014.2 0.0
06/12:00pm W 6 9 - - - - - - - 18.7 1014.3 0.0
06/11:30am W 6 9 - - - - - - - 17.7 1014.4 0.0
06/11:00am SW 6 9 - - - - - - - 18.1 1014.4 0.0
06/10:30am SSW 6 9 - - - - - - - 17.4 1014.5 0.0
06/10:00am SW 10 12 - - - - - - - 17.9 1014.6 0.0
06/09:30am E 4 6 - - - - - - - 17.8 1013.6 0.0
06/09:00am SE 3 5 - - - - - - - 16.5 1013.9 0.0
06/08:30am SE 4 5 - - - - - - - 16.3 1014.3 0.0
06/08:00am E 4 7 - - - - - - - 16.0 1013.9 0.0
06/07:30am ENE 6 8 - - - - - - - 14.6 1013.1 0.0
06/07:00am E 6 8 - - - - - - - 13.6 1013.1 0.0
06/06:30am E 4 6 - - - - - - - 12.6 1013.0 0.0
06/06:00am E 4 6 - - - - - - - 12.0 1012.8 0.0
06/05:30am E 5 5 - - - - - - - 11.6 1012.5 0.0
06/05:00am ESE 5 7 - - - - - - - 12.2 1012.5 0.0
06/04:30am ESE 6 7 - - - - - - - 12.5 1012.5 0.0
06/04:00am ESE 6 9 - - - - - - - 13.3 1012.7 0.0
06/03:30am ESE 6 7 - - - - - - - 14.0 1013.0 0.0
06/03:00am SSE 10 13 - - - - - - - 14.4 1013.3 0.0
06/02:30am SSE 9 12 - - - - - - - 14.4 1013.6 0.0
06/02:00am SSE 10 13 - - - - - - - 14.4 1014.1 0.0
06/01:30am SSE 9 11 - - - - - - - 14.3 1014.4 0.0
06/01:00am SSE 9 11 - - - - - - - 14.4 1014.8 0.0
06/12:30am SSE 10 12 - - - - - - - 14.5 1014.9 0.0
06/12:00am SSE 10 12 - - - - - - - 14.5 1015.1 0.0
 
Date/Time
CDT
Wind Sea
Height
m
Swell Vis
km
Cloud Weather Temp
°C
Press
MSL
hPa
Rain since
9am
mm
Dir  Spd
kts
Gust
kts
Height
m
Period
s
Dir
05/11:30pm SE 10 12 - - - - - - - 14.6 1015.3 0.0
05/11:00pm SE 10 13 - - - - - - - 14.6 1015.5 0.0
05/10:30pm SE 11 13 - - - - - - - 14.8 1015.5 0.0
05/10:00pm SE 12 15 - - - - - - - 14.8 1015.3 0.0
05/09:30pm SE 14 17 - - - - - - - 14.8 1015.2 0.0
05/09:00pm SE 14 18 - - - - - - - 14.9 1015.1 0.0
05/08:30pm SE 12 16 - - - - - - - 15.1 1015.3 0.0
05/08:00pm SE 14 17 - - - - - - - 15.7 1015.2 0.0
05/07:30pm SSE 14 18 - - - - - - - 15.8 1015.2 0.0
05/07:00pm SSE 15 18 - - - - - - - 15.9 1015.2 0.0
05/06:30pm SSE 16 20 - - - - - - - 16.4 1015.0 0.0
05/06:00pm SSE 15 19 - - - - - - - 16.6 1015.3 0.0
05/05:30pm SSE 17 20 - - - - - - - 17.4 1015.5 0.0
05/05:00pm SSE 17 21 - - - - - - - 18.0 1015.5 0.0
05/04:30pm SSE 17 21 - - - - - - - 18.3 1015.9 0.0
05/04:00pm SSE 16 20 - - - - - - - 19.3 1016.2 0.0
05/03:30pm SSE 15 19 - - - - - - - 18.6 1016.5 0.0
05/03:00pm SSE 14 18 - - - - - - - 18.1 1016.8 0.0
05/02:30pm SSE 14 18 - - - - - - - 18.5 1017.0 0.0
05/02:00pm SSE 14 18 - - - - - - - 18.6 1017.2 0.0
05/01:30pm S 14 17 - - - - - - - 19.1 1018.0 0.0
05/01:00pm S 13 16 - - - - - - - 18.4 1018.6 0.0
05/12:30pm S 13 15 - - - - - - - 18.2 1018.9 0.0
05/12:00pm S 12 15 - - - - - - - 18.0 1019.0 0.0
05/11:30am S 12 15 - - - - - - - 18.2 1019.2 0.0
05/11:00am SSE 9 11 - - - - - - - 18.7 1019.3 0.0
05/10:30am SE 9 11 - - - - - - - 19.0 1019.5 0.0
05/10:00am E 10 14 - - - - - - - 18.0 1019.7 0.0
05/09:30am ESE 9 13 - - - - - - - 18.2 1020.0 0.0
05/09:00am ESE 8 11 - - - - - - - 17.0 1020.4 0.0
05/08:30am ESE 11 16 - - - - - - - 16.0 1020.4 0.0
05/08:00am ESE 10 15 - - - - - - - 15.4 1020.2 0.0
05/07:30am ESE 7 10 - - - - - - - 14.7 1020.3 0.0
05/07:00am ESE 8 12 - - - - - - - 14.1 1020.3 0.0
05/06:30am ESE 8 10 - - - - - - - 13.2 1020.3 0.0
05/06:00am ESE 9 13 - - - - - - - 13.3 1020.0 0.0
05/05:30am ESE 11 14 - - - - - - - 13.5 1019.6 0.0
05/05:00am ESE 8 11 - - - - - - - 13.5 1019.5 0.0
05/04:30am SE 13 17 - - - - - - - 13.9 1019.4 0.0
05/04:00am SE 15 19 - - - - - - - 14.1 1019.2 0.0
05/03:30am SE 13 17 - - - - - - - 14.1 1019.4 0.0
05/03:00am SE 14 18 - - - - - - - 14.1 1019.6 0.0
05/02:30am SE 14 20 - - - - - - - 14.2 1020.0 0.0
05/02:00am SE 14 18 - - - - - - - 14.2 1020.5 0.0
05/01:30am SE 15 18 - - - - - - - 14.2 1020.6 0.0
05/01:00am SE 15 19 - - - - - - - 14.4 1020.5 0.0
05/12:30am SE 15 19 - - - - - - - 14.3 1021.0 0.0
05/12:00am SE 14 18 - - - - - - - 14.3 1021.2 0.0
 
Date/Time
CDT
Wind Sea
Height
m
Swell Vis
km
Cloud Weather Temp
°C
Press
MSL
hPa
Rain since
9am
mm
Dir  Spd
kts
Gust
kts
Height
m
Period
s
Dir
04/11:30pm SE 12 16 - - - - - - - 14.1 1021.6 0.0
04/11:00pm SE 13 17 - - - - - - - 14.4 1021.7 0.0
04/10:30pm SE 12 15 - - - - - - - 14.3 1021.8 0.0
04/10:00pm SSE 13 16 - - - - - - - 14.3 1021.5 0.0
04/09:30pm SSE 12 16 - - - - - - - 14.2 1022.0 0.0
04/09:00pm SSE 13 15 - - - - - - - 14.6 1022.2 0.0
04/08:30pm SSE 12 15 - - - - - - - 14.7 1022.3 0.0
04/08:00pm SSE 11 15 - - - - - - - 15.1 1022.0 0.0
04/07:30pm SSE 12 15 - - - - - - - 16.0 1021.9 0.0
04/07:00pm SSE 14 17 - - - - - - - 16.6 1021.4 0.0
04/06:30pm SSE 14 18 - - - - - - - 17.1 1021.4 0.0
04/06:00pm SSE 15 18 - - - - - - - 17.2 1021.3 0.0
04/05:30pm SSE 15 18 - - - - - - - 17.8 1021.4 0.0
04/05:00pm SSE 15 19 - - - - - - - 18.3 1021.7 0.0
04/04:30pm SSE 15 18 - - - - - - - 18.4 1021.9 0.0
04/04:00pm SSE 15 18 - - - - - - - 18.9 1022.3 0.0
04/03:30pm SSE 15 18 - - - - - - - 18.9 1022.6 0.0
04/03:00pm S 14 17 - - - - - - - 19.0 1023.0 0.0
04/02:30pm S 14 17 - - - - - - - 19.1 1023.2 0.0
04/02:00pm SSE 15 19 - - - - - - - 19.4 1023.1 0.0
04/01:30pm SSE 15 18 - - - - - - - 19.4 1023.3 0.0
04/01:00pm SSE 14 17 - - - - - - - 18.8 1023.7 0.0
04/12:30pm SSE 13 18 - - - - - - - 18.8 1024.0 0.0
04/12:00pm SSE 13 17 - - - - - - - 18.9 1024.0 0.0
04/11:30am SSE 12 14 - - - - - - - 18.9 1024.3 0.0
04/11:00am SSE 11 13 - - - - - - - 18.0 1024.3 0.0
04/10:30am S 11 14 - - - - - - - 18.4 1024.3 0.0
04/10:00am SSE 11 15 - - - - - - - 18.4 1024.1 0.0
04/09:30am SSE 11 15 - - - - - - - 17.6 1024.0 0.0
04/09:00am SSE 12 15 - - - - - - - 16.9 1023.4 0.0
04/08:30am SE 10 14 - - - - - - - 16.1 1023.6 0.0
04/08:00am SSE 11 16 - - - - - - - 15.8 1023.2 0.0
04/07:30am SSE 11 15 - - - - - - - 14.8 1023.3 0.0
04/07:00am SSE 12 15 - - - - - - - 14.4 1023.0 0.0
04/06:30am SSE 10 13 - - - - - - - 14.0 1022.7 0.0
04/06:00am SSE 11 15 - - - - - - - 13.7 1022.4 0.0
04/05:30am SSE 10 14 - - - - - - - 13.6 1022.3 0.0
04/05:00am SSE 11 16 - - - - - - - 13.7 1022.0 0.0
04/04:30am SSE 10 15 - - - - - - - 13.6 1022.2 0.0
04/04:00am SSE 12 15 - - - - - - - 13.5 1022.0 0.0
04/03:30am SSE 11 15 - - - - - - - 13.5 1022.1 0.0
04/03:00am SSE 12 16 - - - - - - - 13.5 1021.8 0.0
04/02:30am SSE 13 17 - - - - - - - 13.4 1021.8 0.0
04/02:00am SSE 13 16 - - - - - - - 13.4 1022.0 0.0
04/01:30am SSE 13 17 - - - - - - - 13.4 1021.9 0.0
04/01:00am SSE 13 17 - - - - - - - 13.6 1022.0 0.0
04/12:30am SSE 13 17 - - - - - - - 13.5 1022.2 0.0
04/12:00am SSE 14 17 - - - - - - - 13.7 1022.4 0.0
 
Date/Time
CDT
Wind Sea
Height
m
Swell Vis
km
Cloud Weather Temp
°C
Press
MSL
hPa
Rain since
9am
mm
Dir  Spd
kts
Gust
kts
Height
m
Period
s
Dir
03/11:30pm SSE 13 18 - - - - - - - 14.0 1022.7 0.0
03/11:00pm SSE 13 17 - - - - - - - 13.9 1022.7 0.0
03/10:30pm SSE 14 18 - - - - - - - 13.9 1022.3 0.0
03/10:00pm SSE 14 19 - - - - - - - 13.9 1021.9 0.0
03/09:30pm SSE 12 17 - - - - - - - 14.0 1021.9 0.0
03/09:00pm SSE 13 18 - - - - - - - 14.1 1021.7 0.0
03/08:30pm SSE 13 17 - - - - - - - 14.3 1021.6 0.0
03/08:00pm SSE 13 17 - - - - - - - 14.9 1021.4 0.0
03/07:30pm SSE 13 18 - - - - - - - 15.9 1021.3 0.0
03/07:00pm SSE 13 19 - - - - - - - 15.4 1021.1 0.0
03/06:30pm SSE 14 18 - - - - - - - 16.6 1021.1 0.0
03/06:00pm S 13 16 - - - - - - - 17.3 1021.1 0.0
03/05:30pm SSE 12 17 - - - - - - - 17.9 1021.2 0.0
03/05:00pm SSE 14 18 - - - - - - - 17.9 1021.3 0.0
03/04:30pm S 14 17 - - - - - - - 17.4 1021.5 0.0

Other formats

Comma delimited format used in spreadsheet applications
http://www.bom.gov.au/fwo/IDS60701/IDS60701.95649.axf

JavaScript Object Notation format (JSON) in row-major order
http://www.bom.gov.au/fwo/IDS60701/IDS60701.95649.json

Data quality

Most of these data are generated automatically and are frequently updated. Quality checks on data are not normally performed. It is possible for incorrect values to appear. Refer to information at About Latest Weather Observations and please check the disclaimer before using these data.